Time;durP1;ratioP1;P1;durP2;ratioP2;P2;SDS_P1;SDS_P2;PMS_P1;PMS_P2;Temp;Humidity;BMP_temperature;BMP_pressure;BME280_temperature;BME280_humidity;BME280_pressure;Samples;Min_cycle;Max_cycle;Signal;HPM_P1;HPM_P2
2023/07/01 00:00:34;;;;;;;;;;;;;;;17.24;97.45;100725.72;5054770;28;20020;-74
2023/07/01 00:03:03;;;;;;;;;;;;;;;17.22;97.51;100717.66;5056825;28;19912;-74
2023/07/01 00:05:28;;;;;;;;;;;;;;;17.28;97.58;100708.38;5061789;28;19916;-73
2023/07/01 00:07:55;;;;;;;;;;;;;;;17.21;97.78;100710.44;5063979;28;19956;-74
2023/07/01 00:10:20;;;;;;;;;;;;;;;17.23;97.46;100710.19;5043101;28;19917;-74
2023/07/01 00:12:46;;;;;;;;;;;;;;;17.16;97.79;100709.47;5051734;28;19917;-74
2023/07/01 00:15:11;;;;;;;;;;;;;;;17.20;98.65;100702.38;5045689;28;19916;-74
2023/07/01 00:17:36;;;;;;;;;;;;;;;17.22;98.33;100697.41;5060294;28;19951;-74
2023/07/01 00:20:02;;;;;;;;;;;;;;;17.29;98.40;100696.19;5062722;28;19916;-74
2023/07/01 00:22:28;;;;;;;;;;;;;;;17.20;97.50;100692.16;5060602;28;19916;-74
2023/07/01 00:24:54;;;;;;;;;;;;;;;17.20;97.07;100680.22;5065443;28;19919;-74
2023/07/01 00:27:19;;;;;;;;;;;;;;;17.21;96.97;100682.75;5058429;28;20379;-74
2023/07/01 00:29:45;;;;;;;;;;;;;;;17.22;96.12;100678.03;5059386;28;19913;-74
2023/07/01 00:32:10;;;;;;;;;;;;;;;17.22;94.69;100672.50;5057568;28;19943;-74
2023/07/01 00:34:35;;;;;;;;;;;;;;;17.23;94.58;100675.03;5056238;28;19920;-73
2023/07/01 00:37:01;;;;;;;;;;;;;;;17.20;94.79;100669.16;5060865;28;20015;-74
2023/07/01 00:39:27;;;;;;;;;;;;;;;17.25;94.97;100670.13;5061226;28;19912;-74
2023/07/01 00:41:53;;;;;;;;;;;;;;;17.24;94.97;100667.59;5041567;28;20291;-72
2023/07/01 00:44:18;;;;;;;;;;;;;;;17.26;94.60;100666.25;5038913;28;19974;-73
2023/07/01 00:46:44;;;;;;;;;;;;;;;17.24;94.70;100657.34;5040378;28;19951;-74
2023/07/01 00:49:09;;;;;;;;;;;;;;;17.29;94.33;100656.63;5061922;28;19912;-74
2023/07/01 00:51:34;;;;;;;;;;;;;;;17.31;94.26;100657.19;5055707;28;19920;-73
2023/07/01 00:54:00;;;;;;;;;;;;;;;17.28;94.13;100641.09;5057494;28;20003;-74
2023/07/01 00:56:25;;;;;;;;;;;;;;;17.24;94.78;100645.44;5041094;28;20394;-74
2023/07/01 00:58:50;;;;;;;;;;;;;;;17.25;94.86;100630.50;5058019;28;20141;-73
2023/07/01 01:01:18;;;;;;;;;;;;;;;17.23;94.88;100630.75;5039583;28;20406;-71
2023/07/01 01:04:00;;;;;;;;;;;;;;;17.24;94.45;100623.28;5061327;28;19924;-72
2023/07/01 01:06:33;;;;;;;;;;;;;;;17.21;95.12;100621.00;5041454;28;19913;-72
2023/07/01 01:09:22;;;;;;;;;;;;;;;17.17;95.61;100608.72;5061599;28;20415;-72
2023/07/01 01:11:48;;;;;;;;;;;;;;;17.18;95.31;100614.03;5042127;28;19917;-72
2023/07/01 01:14:15;;;;;;;;;;;;;;;17.19;95.47;100598.25;5021588;28;19917;-70
2023/07/01 01:16:41;;;;;;;;;;;;;;;17.13;95.95;100602.03;5061045;28;20326;-73
2023/07/01 01:19:19;;;;;;;;;;;;;;;17.20;95.20;100597.16;5061941;28;19919;-72
2023/07/01 01:21:46;;;;;;;;;;;;;;;17.25;95.28;100605.59;5042056;28;19913;-72
2023/07/01 01:24:12;;;;;;;;;;;;;;;17.23;95.43;100597.50;5045571;28;19916;-72
2023/07/01 01:26:39;;;;;;;;;;;;;;;17.22;95.26;100595.00;5060375;28;20416;-72
2023/07/01 01:29:06;;;;;;;;;;;;;;;17.21;95.34;100587.78;5059957;28;19913;-72
2023/07/01 01:31:34;;;;;;;;;;;;;;;17.22;95.70;100587.53;5055834;28;19917;-71
2023/07/01 01:34:00;;;;;;;;;;;;;;;17.24;95.27;100590.06;5064824;28;19931;-71
2023/07/01 01:36:30;;;;;;;;;;;;;;;17.21;96.09;100585.84;5038243;28;19912;-71
2023/07/01 01:39:05;;;;;;;;;;;;;;;17.23;95.56;100571.78;5057892;28;19916;-71
2023/07/01 01:42:00;;;;;;;;;;;;;;;17.22;96.20;100582.00;5042398;28;19932;-72
2023/07/01 01:44:35;;;;;;;;;;;;;;;17.26;95.92;100572.13;5041402;28;19927;-72
2023/07/01 01:47:01;;;;;;;;;;;;;;;17.21;96.24;100572.00;5060611;28;20406;-71
2023/07/01 01:49:27;;;;;;;;;;;;;;;17.21;96.25;100558.19;5060645;28;19947;-72
2023/07/01 01:51:53;;;;;;;;;;;;;;;17.27;96.20;100562.72;5054618;28;19924;-72
2023/07/01 01:54:20;;;;;;;;;;;;;;;17.27;96.38;100562.72;5057991;28;19913;-70
2023/07/01 01:56:45;;;;;;;;;;;;;;;17.30;96.25;100553.06;5055228;28;19927;-70
2023/07/01 01:59:11;;;;;;;;;;;;;;;17.28;96.31;100547.78;5034316;28;20333;-71
2023/07/01 02:01:36;;;;;;;;;;;;;;;17.29;96.12;100548.63;5056823;28;20292;-71
2023/07/01 02:04:02;;;;;;;;;;;;;;;17.26;97.00;100546.34;5036910;28;20291;-70
2023/07/01 02:06:27;;;;;;;;;;;;;;;17.28;96.96;100550.53;5041350;28;19924;-71
2023/07/01 02:08:52;;;;;;;;;;;;;;;17.24;97.17;100548.53;5056036;28;19979;-70
2023/07/01 02:11:18;;;;;;;;;;;;;;;17.20;97.66;100536.25;5058756;28;19916;-71
2023/07/01 02:13:43;;;;;;;;;;;;;;;17.22;98.10;100534.94;5058045;28;19963;-72
2023/07/01 02:16:09;;;;;;;;;;;;;;;17.23;98.12;100530.25;5020887;28;19917;-72
2023/07/01 02:18:35;;;;;;;;;;;;;;;17.21;97.95;100536.03;5058018;28;19913;-71
2023/07/01 02:21:00;;;;;;;;;;;;;;;17.25;97.69;100528.06;5039838;28;20339;-71
2023/07/01 02:23:26;;;;;;;;;;;;;;;17.20;98.40;100527.97;5038331;28;20784;-71
2023/07/01 02:25:52;;;;;;;;;;;;;;;17.25;98.22;100516.97;5061478;28;19921;-72
2023/07/01 02:28:17;;;;;;;;;;;;;;;17.29;98.42;100526.47;5059228;28;19966;-72
2023/07/01 02:30:42;;;;;;;;;;;;;;;17.30;98.14;100528.16;5038223;28;19916;-72
2023/07/01 02:33:08;;;;;;;;;;;;;;;17.33;97.40;100505.50;5059032;28;20011;-72
2023/07/01 02:35:33;;;;;;;;;;;;;;;17.29;98.18;100524.53;5041223;28;19913;-72
2023/07/01 02:37:58;;;;;;;;;;;;;;;17.29;98.46;100515.41;5061525;28;19912;-72
2023/07/01 02:40:24;;;;;;;;;;;;;;;17.29;98.91;100509.88;5038532;28;19925;-72
2023/07/01 02:42:49;;;;;;;;;;;;;;;17.35;99.35;100508.88;5039838;28;20308;-73
2023/07/01 02:45:14;;;;;;;;;;;;;;;17.29;99.66;100509.88;5058652;28;19916;-73
2023/07/01 02:47:39;;;;;;;;;;;;;;;17.22;100.00;100507.25;5059597;28;20004;-72
2023/07/01 02:50:05;;;;;;;;;;;;;;;17.28;100.00;100505.44;5057425;28;19952;-71
2023/07/01 02:52:31;;;;;;;;;;;;;;;17.26;100.00;100504.81;5011738;28;20439;-73
2023/07/01 02:54:56;;;;;;;;;;;;;;;17.28;100.00;100499.88;5059415;28;20031;-72
2023/07/01 02:57:23;;;;;;;;;;;;;;;17.27;100.00;100498.19;5042506;28;19958;-73
2023/07/01 02:59:48;;;;;;;;;;;;;;;17.21;100.00;100507.50;5054638;28;19961;-72
2023/07/01 03:02:14;;;;;;;;;;;;;;;17.14;100.00;100506.81;5056198;28;19912;-72
2023/07/01 03:04:40;;;;;;;;;;;;;;;17.09;100.00;100504.81;5058946;28;19927;-71
2023/07/01 03:07:05;;;;;;;;;;;;;;;17.03;100.00;100503.00;5059353;28;19919;-72
2023/07/01 03:09:30;;;;;;;;;;;;;;;16.96;100.00;100495.97;5057331;28;19998;-72
2023/07/01 03:11:55;;;;;;;;;;;;;;;16.90;100.00;100494.16;5059086;28;19913;-72
2023/07/01 03:14:21;;;;;;;;;;;;;;;16.78;100.00;100491.44;5050549;28;20350;-72
2023/07/01 03:16:46;;;;;;;;;;;;;;;16.82;100.00;100481.53;5053528;28;19982;-71
2023/07/01 03:19:12;;;;;;;;;;;;;;;16.76;100.00;100485.31;5038606;28;20403;-71
2023/07/01 03:21:37;;;;;;;;;;;;;;;16.76;100.00;100481.72;5059943;28;20340;-72
2023/07/01 03:24:03;;;;;;;;;;;;;;;16.77;100.00;100470.41;5055800;28;19923;-72
2023/07/01 03:26:28;;;;;;;;;;;;;;;16.76;100.00;100482.53;5039932;28;19955;-72
2023/07/01 03:28:53;;;;;;;;;;;;;;;16.79;100.00;100467.38;5055578;28;20395;-72
2023/07/01 03:31:19;;;;;;;;;;;;;;;16.78;100.00;100468.47;5056975;28;19963;-72
2023/07/01 03:33:46;;;;;;;;;;;;;;;16.75;100.00;100469.78;5059382;28;19909;-72
2023/07/01 03:36:13;;;;;;;;;;;;;;;16.82;100.00;100464.13;5059448;28;20434;-73
2023/07/01 03:38:40;;;;;;;;;;;;;;;16.85;100.00;100464.47;5061426;28;19908;-76
2023/07/01 03:41:08;;;;;;;;;;;;;;;16.88;100.00;100454.84;5042848;28;20372;-72
2023/07/01 03:43:34;;;;;;;;;;;;;;;16.84;100.00;100456.41;5056894;28;19917;-72
2023/07/01 03:45:59;;;;;;;;;;;;;;;16.84;100.00;100448.09;5040011;28;20288;-72
2023/07/01 03:48:24;;;;;;;;;;;;;;;16.87;100.00;100450.38;5042942;28;20008;-72
2023/07/01 03:50:50;;;;;;;;;;;;;;;16.86;100.00;100449.53;5037215;28;19963;-72
2023/07/01 03:53:15;;;;;;;;;;;;;;;16.83;100.00;100443.66;5059408;28;19923;-71
2023/07/01 03:55:40;;;;;;;;;;;;;;;16.82;100.00;100442.00;5057798;28;20134;-71
2023/07/01 03:58:06;;;;;;;;;;;;;;;16.73;100.00;100429.63;5052469;28;19913;-72
2023/07/01 04:00:31;;;;;;;;;;;;;;;16.72;100.00;100430.72;5034230;28;19921;-72
2023/07/01 04:03:05;;;;;;;;;;;;;;;16.75;100.00;100428.31;5058136;28;20416;-72
2023/07/01 04:05:34;;;;;;;;;;;;;;;16.83;100.00;100427.06;5056122;28;20376;-71
2023/07/01 04:07:59;;;;;;;;;;;;;;;16.76;100.00;100432.75;5041520;28;19961;-72
2023/07/01 04:10:24;;;;;;;;;;;;;;;16.78;100.00;100432.50;5045624;28;19916;-72
2023/07/01 04:12:50;;;;;;;;;;;;;;;16.77;100.00;100425.28;5057489;28;20373;-72
2023/07/01 04:15:15;;;;;;;;;;;;;;;16.78;100.00;100415.91;5043324;28;20361;-73
2023/07/01 04:17:42;;;;;;;;;;;;;;;16.76;100.00;100412.56;5034517;28;20418;-73
2023/07/01 04:20:09;;;;;;;;;;;;;;;16.83;100.00;100416.84;5040350;28;20007;-71
2023/07/01 04:22:35;;;;;;;;;;;;;;;16.83;100.00;100413.22;5062505;28;19912;-72
2023/07/01 04:25:00;;;;;;;;;;;;;;;16.77;100.00;100411.47;5061069;28;20252;-71
2023/07/01 04:27:25;;;;;;;;;;;;;;;16.82;100.00;100406.84;5039451;28;20050;-72
2023/07/01 04:29:50;;;;;;;;;;;;;;;16.82;100.00;100411.56;5060017;28;19920;-72
2023/07/01 04:32:18;;;;;;;;;;;;;;;16.88;100.00;100407.78;5060645;28;19913;-72
2023/07/01 04:34:43;;;;;;;;;;;;;;;16.91;100.00;100399.00;5051509;28;19917;-73
2023/07/01 04:37:09;;;;;;;;;;;;;;;16.93;100.00;100399.59;5058099;28;20283;-73
2023/07/01 04:39:36;;;;;;;;;;;;;;;16.92;100.00;100407.03;5062196;28;19913;-72
2023/07/01 04:42:02;;;;;;;;;;;;;;;16.91;100.00;100399.00;5056234;28;19913;-73
2023/07/01 04:44:28;;;;;;;;;;;;;;;16.88;100.00;100394.81;5058872;28;19992;-72
2023/07/01 04:46:54;;;;;;;;;;;;;;;16.89;100.00;100392.88;5054958;28;19916;-72
2023/07/01 04:49:19;;;;;;;;;;;;;;;16.93;100.00;100391.28;5058265;28;19925;-72
2023/07/01 04:51:45;;;;;;;;;;;;;;;17.00;100.00;100394.72;5041813;28;20391;-72
2023/07/01 04:54:10;;;;;;;;;;;;;;;16.99;100.00;100390.28;5055785;28;19916;-71
2023/07/01 04:56:36;;;;;;;;;;;;;;;16.99;100.00;100381.97;5045549;28;19919;-72
2023/07/01 04:59:01;;;;;;;;;;;;;;;17.05;100.00;100386.50;5047526;28;19955;-73
2023/07/01 05:01:27;;;;;;;;;;;;;;;17.09;100.00;100382.16;5052340;28;19966;-72
2023/07/01 05:03:53;;;;;;;;;;;;;;;17.10;100.00;100378.31;5036057;28;19943;-72
2023/07/01 05:06:19;;;;;;;;;;;;;;;17.07;100.00;100376.06;5059583;28;19916;-71
2023/07/01 05:08:46;;;;;;;;;;;;;;;17.17;100.00;100377.03;5056411;28;19923;-72
2023/07/01 05:11:11;;;;;;;;;;;;;;;17.10;100.00;100373.63;5044838;28;19947;-72
2023/07/01 05:13:37;;;;;;;;;;;;;;;17.09;100.00;100380.25;5058356;28;19912;-72
2023/07/01 05:16:02;;;;;;;;;;;;;;;17.10;100.00;100381.91;5059891;28;19913;-71
2023/07/01 05:18:27;;;;;;;;;;;;;;;17.09;100.00;100376.63;5056816;28;19999;-72
2023/07/01 05:20:54;;;;;;;;;;;;;;;17.08;100.00;100374.97;5060551;28;20291;-72
2023/07/01 05:23:19;;;;;;;;;;;;;;;17.09;100.00;100382.16;5057737;28;20510;-72
2023/07/01 05:25:44;;;;;;;;;;;;;;;17.10;100.00;100370.00;5063379;28;19948;-72
2023/07/01 05:28:10;;;;;;;;;;;;;;;17.15;100.00;100364.53;5054488;28;19920;-72
2023/07/01 05:30:35;;;;;;;;;;;;;;;17.18;100.00;100369.59;5053851;28;19921;-71
2023/07/01 05:33:00;;;;;;;;;;;;;;;17.17;100.00;100373.44;5053634;28;20360;-71
2023/07/01 05:35:26;;;;;;;;;;;;;;;17.16;100.00;100364.31;5059765;28;19912;-71
2023/07/01 05:37:52;;;;;;;;;;;;;;;17.21;100.00;100360.75;5055646;28;19916;-71
2023/07/01 05:40:17;;;;;;;;;;;;;;;17.12;100.00;100360.34;5037582;28;19965;-72
2023/07/01 05:42:43;;;;;;;;;;;;;;;17.18;100.00;100355.75;5056123;28;19921;-72
2023/07/01 05:45:09;;;;;;;;;;;;;;;17.24;100.00;100361.09;5059735;28;19962;-72
2023/07/01 05:47:34;;;;;;;;;;;;;;;17.29;100.00;100360.34;5054458;28;19916;-73
2023/07/01 05:49:59;;;;;;;;;;;;;;;17.28;100.00;100353.16;5060551;28;19923;-72
2023/07/01 05:52:25;;;;;;;;;;;;;;;17.30;100.00;100356.50;5051221;28;19919;-72
2023/07/01 05:54:50;;;;;;;;;;;;;;;17.31;100.00;100358.16;5041602;28;19917;-72
2023/07/01 05:57:15;;;;;;;;;;;;;;;17.31;100.00;100353.47;5038782;28;19918;-72
2023/07/01 05:59:40;;;;;;;;;;;;;;;17.33;100.00;100367.03;5051351;28;19921;-72
2023/07/01 06:02:06;;;;;;;;;;;;;;;17.36;100.00;100359.09;5055282;28;19912;-72
2023/07/01 06:04:31;;;;;;;;;;;;;;;17.35;100.00;100356.56;5059840;28;19967;-72
2023/07/01 06:06:56;;;;;;;;;;;;;;;17.34;100.00;100349.38;5056505;28;19916;-72
2023/07/01 06:09:21;;;;;;;;;;;;;;;17.37;100.00;100358.00;5056789;28;19922;-72
2023/07/01 06:11:47;;;;;;;;;;;;;;;17.35;100.00;100364.88;5053067;28;19917;-72
2023/07/01 06:14:12;;;;;;;;;;;;;;;17.37;100.00;100363.53;5054636;28;19913;-71
2023/07/01 06:16:37;;;;;;;;;;;;;;;17.29;100.00;100361.19;5051844;28;19920;-72
2023/07/01 06:19:02;;;;;;;;;;;;;;;17.38;100.00;100356.94;5036832;28;19916;-71
2023/07/01 06:21:28;;;;;;;;;;;;;;;17.38;100.00;100358.81;5038859;28;20003;-72
2023/07/01 06:23:54;;;;;;;;;;;;;;;17.36;100.00;100361.00;5055095;28;20296;-72
2023/07/01 06:26:19;;;;;;;;;;;;;;;17.36;100.00;100366.56;5060129;28;19923;-72
2023/07/01 06:28:44;;;;;;;;;;;;;;;17.38;100.00;100364.34;5047456;28;19916;-72
2023/07/01 06:31:10;;;;;;;;;;;;;;;17.33;100.00;100358.75;5055285;28;19916;-71
2023/07/01 06:33:38;;;;;;;;;;;;;;;17.36;100.00;100359.09;5051536;28;20280;-72
2023/07/01 06:36:04;;;;;;;;;;;;;;;17.38;100.00;100358.81;5038482;28;20010;-73
2023/07/01 06:38:29;;;;;;;;;;;;;;;17.38;100.00;100354.16;5059197;28;19912;-71
2023/07/01 06:40:54;;;;;;;;;;;;;;;17.35;100.00;100353.81;5058758;28;19917;-72
2023/07/01 06:43:19;;;;;;;;;;;;;;;17.36;100.00;100363.78;5038261;28;19916;-73
2023/07/01 06:45:45;;;;;;;;;;;;;;;17.35;100.00;100362.13;5055652;28;19916;-72
2023/07/01 06:48:10;;;;;;;;;;;;;;;17.34;100.00;100358.50;5052604;28;20414;-72
2023/07/01 06:50:35;;;;;;;;;;;;;;;17.34;100.00;100354.91;5035248;28;19920;-72
2023/07/01 06:53:01;;;;;;;;;;;;;;;17.36;100.00;100356.34;5054974;28;20371;-72
2023/07/01 06:55:26;;;;;;;;;;;;;;;17.49;100.00;100346.84;5062317;28;19912;-72
2023/07/01 06:57:52;;;;;;;;;;;;;;;17.53;100.00;100346.09;5053247;28;19920;-72
2023/07/01 07:00:17;;;;;;;;;;;;;;;17.63;100.00;100360.09;5051193;28;19917;-72
2023/07/01 07:02:42;;;;;;;;;;;;;;;17.68;100.00;100354.63;5042013;28;19916;-72
2023/07/01 07:05:10;;;;;;;;;;;;;;;17.70;100.00;100348.81;5049354;28;19948;-72
2023/07/01 07:07:35;;;;;;;;;;;;;;;17.77;100.00;100335.63;5049447;28;19913;-72
2023/07/01 07:10:01;;;;;;;;;;;;;;;17.90;100.00;100332.47;5058449;28;19943;-71
2023/07/01 07:12:26;;;;;;;;;;;;;;;17.87;100.00;100327.47;5055770;28;20003;-71
2023/07/01 07:14:51;;;;;;;;;;;;;;;17.86;100.00;100334.91;5039996;28;20265;-72
2023/07/01 07:17:17;;;;;;;;;;;;;;;17.79;100.00;100339.81;5050974;28;20604;-72
2023/07/01 07:19:42;;;;;;;;;;;;;;;17.84;100.00;100336.28;5055289;28;20003;-72
2023/07/01 07:22:07;;;;;;;;;;;;;;;17.89;100.00;100339.13;5040063;28;20322;-72
2023/07/01 07:24:32;;;;;;;;;;;;;;;17.94;100.00;100331.69;5051600;28;19921;-72
2023/07/01 07:27:00;;;;;;;;;;;;;;;17.91;100.00;100332.22;5050721;28;19939;-72
2023/07/01 07:29:29;;;;;;;;;;;;;;;17.93;100.00;100334.75;5054411;28;19919;-72
2023/07/01 07:31:55;;;;;;;;;;;;;;;17.84;100.00;100334.34;5056008;28;19916;-72
2023/07/01 07:35:22;;;;;;;2.92;2.70;;;;;;;17.76;100.00;100331.19;5077910;27;1262880;-72
2023/07/01 07:37:48;;;;;;;2.93;2.73;;;;;;;17.83;100.00;100326.28;5087930;28;20027;-73
2023/07/01 07:40:14;;;;;;;2.85;2.65;;;;;;;17.97;100.00;100333.97;5084820;28;20469;-72
2023/07/01 07:42:41;;;;;;;2.90;2.70;;;;;;;17.97;100.00;100331.19;5105030;28;20395;-73
2023/07/01 07:45:07;;;;;;;3.05;2.85;;;;;;;18.01;100.00;100325.97;5104735;28;20344;-74
2023/07/01 07:47:32;;;;;;;3.50;2.53;;;;;;;18.03;100.00;100327.38;5103351;28;20034;-73
2023/07/01 07:49:59;;;;;;;2.90;2.50;;;;;;;17.97;100.00;100325.63;5088820;28;20030;-74
2023/07/01 07:52:24;;;;;;;;;;;;;;;17.95;100.00;100321.44;5090317;28;20020;-73
2023/07/01 07:54:50;;;;;;;2.70;2.50;;;;;;;17.99;100.00;100319.84;5108539;28;20333;-73
2023/07/01 07:57:15;;;;;;;3.17;2.87;;;;;;;18.02;100.00;100325.72;5105840;28;20032;-73
2023/07/01 07:59:41;;;;;;;2.87;2.67;;;;;;;18.09;100.00;100325.53;5086266;28;20043;-73
2023/07/01 08:02:08;;;;;;;3.45;3.25;;;;;;;18.17;100.00;100325.03;5101285;28;20199;-73
2023/07/01 08:04:33;;;;;;;3.90;3.58;;;;;;;18.19;100.00;100320.91;5078385;28;20088;-73
2023/07/01 08:06:59;;;;;;;3.47;3.27;;;;;;;18.13;100.00;100323.88;5099746;28;20471;-73
2023/07/01 08:09:25;;;;;;;5.90;3.73;;;;;;;18.15;100.00;100325.28;5104335;28;20462;-72
2023/07/01 08:11:50;;;;;;;4.60;4.20;;;;;;;18.26;100.00;100313.22;5104278;28;20049;-73
2023/07/01 08:14:15;;;;;;;4.27;3.97;;;;;;;18.33;100.00;100319.47;5105362;28;20055;-72
2023/07/01 08:16:41;;;;;;;6.90;4.00;;;;;;;18.41;100.00;100318.16;5103328;28;20376;-73
2023/07/01 08:19:06;;;;;;;4.40;4.10;;;;;;;18.42;100.00;100322.59;5105218;28;20039;-72
2023/07/01 08:21:35;;;;;;;4.50;4.00;;;;;;;18.40;100.00;100314.53;5079919;28;20023;-73
2023/07/01 08:24:01;;;;;;;4.43;4.03;;;;;;;18.37;100.00;100317.00;5101378;28;20024;-73
2023/07/01 08:26:26;;;;;;;5.80;4.83;;;;;;;18.44;100.00;100318.47;5105884;28;20026;-72
2023/07/01 08:28:51;;;;;;;4.20;3.90;;;;;;;18.51;100.00;100312.72;5102183;28;20040;-73
2023/07/01 08:31:17;;;;;;;4.57;4.17;;;;;;;18.50;100.00;100319.34;5106002;28;20039;-73
2023/07/01 08:33:42;;;;;;;5.20;4.80;;;;;;;18.57;100.00;100317.22;5083070;28;20054;-72
2023/07/01 08:36:07;;;;;;;4.50;4.20;;;;;;;18.60;100.00;100325.00;5106039;28;20031;-73
2023/07/01 08:38:33;;;;;;;4.27;3.97;;;;;;;18.48;100.00;100322.41;5104567;28;20059;-73
2023/07/01 08:41:02;;;;;;;6.23;4.13;;;;;;;18.49;100.00;100315.75;5102455;28;20024;-73
2023/07/01 08:43:29;;;;;;;4.07;3.67;;;;;;;18.44;100.00;100315.69;5105600;28;20102;-73
2023/07/01 08:46:02;;;;;;;5.45;3.92;;;;;;;18.45;100.00;100319.28;5078598;28;20023;-73
2023/07/01 08:48:31;;;;;;;3.80;3.50;;;;;;;18.40;100.00;100314.53;5087294;28;20028;-72
2023/07/01 08:51:06;;;;;;;4.22;3.83;;;;;;;18.32;100.00;100316.94;5089520;28;20028;-72
2023/07/01 08:53:33;;;;;;;3.95;3.63;;;;;;;18.39;100.00;100312.88;5072385;28;20399;-73
2023/07/01 08:55:58;;;;;;;;;;;;;;;18.46;100.00;100313.50;5091731;28;20012;-72
2023/07/01 08:58:25;;;;;;;4.00;3.50;;;;;;;18.52;100.00;100317.97;5088515;28;19919;-73
2023/07/01 09:00:51;;;;;;;4.22;3.72;;;;;;;18.59;100.00;100315.00;5089710;28;20031;-73
2023/07/01 09:03:17;;;;;;;4.70;4.13;;;;;;;18.69;100.00;100320.66;5088907;28;20032;-72
2023/07/01 09:05:42;;;;;;;3.83;3.53;;;;;;;18.65;100.00;100314.81;5087661;28;20106;-72
2023/07/01 09:08:08;;;;;;;4.37;3.97;;;;;;;18.79;100.00;100312.44;5088830;28;20048;-73
2023/07/01 09:10:34;;;;;;;4.80;4.40;;;;;;;18.78;100.00;100319.91;5088409;28;20030;-73
2023/07/01 09:13:12;;;;;;;3.85;3.55;;;;;;;18.79;100.00;100315.22;5092194;28;20028;-74
2023/07/01 09:15:44;;;;;;;3.80;3.50;;;;;;;18.80;100.00;100314.97;5089772;28;20051;-74
2023/07/01 09:18:26;;;;;;;3.45;3.15;;;;;;;18.89;100.00;100323.63;5073937;28;20387;-73
2023/07/01 09:20:52;;;;;;;4.10;3.40;;;;;;;18.91;100.00;100310.31;5083181;28;20023;-73
2023/07/01 09:23:35;;;;;;;3.72;3.42;;;;;;;19.01;100.00;100310.41;5067679;28;20073;-74
2023/07/01 09:26:06;;;;;;;5.40;3.40;;;;;;;19.04;100.00;100309.88;5090715;28;20051;-73
2023/07/01 09:28:32;;;;;;;3.17;2.65;;;;;;;19.00;100.00;100319.84;5087003;28;20039;-73
2023/07/01 09:31:01;;;;;;;4.30;3.97;;;;;;;19.10;100.00;100319.94;5086138;28;20019;-73
2023/07/01 09:33:27;;;;;;;3.13;2.83;;;;;;;19.07;100.00;100312.97;5083979;28;20034;-73
2023/07/01 09:35:57;;;;;;;3.05;2.63;;;;;;;19.03;100.00;100320.16;5086732;28;20028;-73
2023/07/01 09:38:25;;;;;;;3.28;2.40;;;;;;;19.04;100.00;100323.78;5090567;28;20106;-73
2023/07/01 09:40:51;;;;;;;2.53;2.33;;;;;;;19.35;100.00;100312.66;5089223;28;20028;-74
2023/07/01 09:43:19;;;;;;;2.80;2.47;;;;;;;19.24;100.00;100322.00;5088457;28;20471;-73
2023/07/01 09:45:55;;;;;;;2.50;1.80;;;;;;;19.31;100.00;100321.78;5088457;28;20138;-73
2023/07/01 09:48:21;;;;;;;2.35;2.15;;;;;;;19.21;100.00;100319.75;5067443;28;20032;-73
2023/07/01 09:50:48;;;;;;;2.00;1.83;;;;;;;19.26;100.00;100324.53;5088373;28;20040;-73
2023/07/01 09:53:20;;;;;;;;;;;;;;;19.23;100.00;100313.94;5087896;28;20541;-72
2023/07/01 09:55:47;;;;;;;3.45;2.80;;;;;;;19.12;100.00;100317.72;5088627;28;19955;-73
2023/07/01 09:58:13;;;;;;;5.15;3.53;;;;;;;19.11;100.00;100316.03;5083045;28;20073;-74
2023/07/01 10:00:39;;;;;;;8.15;3.40;;;;;;;19.10;100.00;100317.16;5086545;28;20028;-73
2023/07/01 10:03:04;;;;;;;7.38;4.30;;;;;;;19.20;100.00;100320.00;5069439;28;20062;-73
2023/07/01 10:05:31;;;;;;;10.40;4.00;;;;;;;19.20;100.00;100312.50;5083310;28;20055;-73
2023/07/01 10:07:56;;;;;;;9.82;4.03;;;;;;;19.07;100.00;100306.56;5085464;28;20051;-72
2023/07/01 10:10:22;;;;;;;13.07;4.87;;;;;;;19.09;100.00;100318.22;5071373;28;20024;-73
2023/07/01 10:12:50;;;;;;;10.27;4.43;;;;;;;19.17;100.00;100312.19;5086421;28;20049;-72
2023/07/01 10:15:23;;;;;;;11.13;4.13;;;;;;;19.24;100.00;100310.06;5066351;28;20034;-73
2023/07/01 10:17:49;;;;;;;10.52;4.57;;;;;;;19.28;100.00;100316.75;5090283;28;20035;-72
2023/07/01 10:20:35;;;;;;;;;;;;;;;19.22;100.00;100317.81;5092053;28;20133;-73
2023/07/01 10:23:02;;;;;;;10.63;4.95;;;;;;;19.23;100.00;100319.50;5072965;28;20362;-73
2023/07/01 10:25:38;;;;;;;8.88;4.55;;;;;;;19.23;100.00;100327.81;5087522;28;20038;-73
2023/07/01 10:28:07;;;;;;;13.18;4.32;;;;;;;19.22;100.00;100317.81;5072093;28;20028;-73
2023/07/01 10:30:42;;;;;;;13.63;4.68;;;;;;;19.27;100.00;100320.66;5067359;28;20024;-73
2023/07/01 10:33:39;;;;;;;10.40;4.75;;;;;;;19.44;100.00;100324.09;5069764;28;20020;-73
2023/07/01 10:36:13;;;;;;;13.38;5.45;;;;;;;19.72;100.00;100329.25;5091785;28;20035;-73
2023/07/01 10:38:38;;;;;;;13.35;4.80;;;;;;;19.97;100.00;100321.06;5089818;28;20028;-72
2023/07/01 10:41:05;;;;;;;11.43;5.03;;;;;;;20.31;100.00;100319.53;5091553;28;20035;-72
2023/07/01 10:43:33;;;;;;;11.63;4.97;;;;;;;20.55;100.00;100318.78;5089471;28;20775;-72
2023/07/01 10:46:13;;;;;;;9.50;4.97;;;;;;;20.38;100.00;100329.31;5070408;28;20098;-73
2023/07/01 10:48:42;;;;;;;11.00;5.05;;;;;;;20.07;100.00;100318.38;5089348;28;20035;-72
2023/07/01 10:51:10;;;;;;;9.88;5.07;;;;;;;19.96;100.00;100309.09;5091074;28;20394;-73
2023/07/01 10:53:58;;;;;;;13.15;4.68;;;;;;;19.97;100.00;100315.50;5089502;28;20043;-72
2023/07/01 10:56:24;;;;;;;10.68;4.70;;;;;;;20.16;100.00;100316.75;5088739;28;20024;-71
2023/07/01 10:59:21;;;;;;;13.98;4.80;;;;;;;20.41;100.00;100322.38;5088952;28;20071;-73
2023/07/01 11:01:59;;;;;;;12.45;5.03;;;;;;;20.41;100.00;100336.28;5066613;28;20032;-71
2023/07/01 11:04:44;;;;;;;13.85;4.50;;;;;;;20.24;100.00;100327.31;5067831;28;20127;-71
2023/07/01 11:07:10;;;;;;;13.88;4.45;;;;;;;20.05;100.00;100321.38;5087471;28;20419;-71
2023/07/01 11:09:36;;;;;;;10.75;4.43;;;;;;;19.99;100.00;100318.84;5073278;28;20036;-72
2023/07/01 11:12:04;;;;;;;10.83;4.03;;;;;;;20.12;100.00;100312.81;5090483;28;20024;-72
2023/07/01 11:14:34;;;;;;;11.38;4.10;;;;;;;20.45;100.00;100326.28;5089792;28;20031;-72
2023/07/01 11:17:17;;;;;;;8.73;3.70;;;;;;;20.45;100.00;100317.94;5068394;28;20032;-71
2023/07/01 11:19:46;;;;;;;9.10;4.18;;;;;;;20.34;100.00;100332.94;5090719;28;20109;-72
2023/07/01 11:22:14;;;;;;;9.82;4.03;;;;;;;20.08;100.00;100333.94;5088573;28;20062;-71
2023/07/01 11:24:40;;;;;;;9.13;4.70;;;;;;;20.01;100.00;100339.69;5090917;28;20020;-72
2023/07/01 11:27:08;;;;;;;8.38;3.17;;;;;;;19.81;100.00;100331.28;5072680;28;20024;-71
2023/07/01 11:29:42;;;;;;;11.07;4.25;;;;;;;19.70;100.00;100343.41;5089445;28;20027;-71
2023/07/01 11:32:12;;;;;;;7.65;3.83;;;;;;;19.66;100.00;100333.97;5052245;28;20063;-70
2023/07/01 11:34:39;;;;;;;5.63;3.78;;;;;;;19.82;100.00;100354.34;5089408;28;20130;-71
2023/07/01 11:37:05;;;;;;;5.60;4.05;;;;;;;20.01;100.00;100342.47;5089345;28;20038;-71
2023/07/01 11:39:31;;;;;;;13.40;5.15;;;;;;;20.42;100.00;100347.13;5088015;28;20098;-72
2023/07/01 11:42:00;;;;;;;10.17;4.73;;;;;;;20.83;100.00;100348.06;5090034;28;20023;-71
2023/07/01 11:44:28;;;;;;;9.65;4.55;;;;;;;21.05;100.00;100340.31;5081856;28;20514;-71
2023/07/01 11:46:55;;;;;;;7.95;4.35;;;;;;;21.10;100.00;100343.09;5083756;28;20024;-72
2023/07/01 11:49:26;;;;;;;6.90;4.28;;;;;;;21.05;100.00;100340.31;5068944;28;20453;-72
2023/07/01 11:51:53;;;;;;;6.22;4.28;;;;;;;21.02;100.00;100346.47;5086225;28;20024;-71
2023/07/01 11:54:21;;;;;;;4.90;3.55;;;;;;;20.94;100.00;100349.78;5068586;28;20510;-71
2023/07/01 11:56:48;;;;;;;14.98;4.15;;;;;;;20.99;100.00;100359.00;5087510;28;20446;-71
2023/07/01 11:59:30;;;;;;;10.57;3.55;;;;;;;20.94;100.00;100347.00;5084707;28;20115;-70
2023/07/01 12:01:56;;;;;;;8.13;3.78;;;;;;;21.12;100.00;100352.84;5087225;28;20041;-71